Time;durP1;ratioP1;P1;durP2;ratioP2;P2;SDS_P1;SDS_P2;PMS_P1;PMS_P2;Temp;Humidity;BMP_temperature;BMP_pressure;BME280_temperature;BME280_humidity;BME280_pressure;Samples;Min_cycle;Max_cycle;Signal;HPM_P1;HPM_P2
2022/07/19 00:00:34;;;;;;;7.30;2.85;;;;;;;28.56;40.23;101196.81;5043198;28;20044;-64
2022/07/19 00:03:20;;;;;;;7.60;2.97;;;;;;;28.65;39.84;101191.44;5048959;28;20051;-63
2022/07/19 00:06:06;;;;;;;7.10;3.13;;;;;;;28.67;39.58;101186.22;5050287;28;20428;-66
2022/07/19 00:08:51;;;;;;;15.18;2.97;;;;;;;28.71;39.69;101189.72;5050272;28;20044;-64
2022/07/19 00:11:36;;;;;;;8.65;2.95;;;;;;;28.59;39.83;101190.38;5049869;28;20048;-66
2022/07/19 00:14:21;;;;;;;7.13;3.25;;;;;;;28.57;39.68;101189.19;5041817;28;20044;-64
2022/07/19 00:17:06;;;;;;;6.38;3.00;;;;;;;28.49;40.16;101194.16;5047235;28;20044;-66
2022/07/19 00:19:51;;;;;;;7.00;2.53;;;;;;;28.33;40.51;101180.03;5050211;28;20048;-64
2022/07/19 00:22:36;;;;;;;14.57;3.63;;;;;;;28.29;40.75;101184.91;5049939;28;20048;-67
2022/07/19 00:25:21;;;;;;;5.88;3.05;;;;;;;28.20;41.44;101184.63;5047777;28;20403;-64
2022/07/19 00:28:06;;;;;;;7.40;2.60;;;;;;;28.14;41.29;101183.56;5047319;28;20132;-65
2022/07/19 00:30:51;;;;;;;12.52;3.67;;;;;;;28.13;41.06;101188.34;5046730;28;20063;-64
2022/07/19 00:33:36;;;;;;;5.35;3.05;;;;;;;28.15;40.76;101185.13;5057426;28;20036;-63
2022/07/19 00:36:21;;;;;;;10.70;2.90;;;;;;;28.18;40.95;101184.28;5052587;28;20502;-66
2022/07/19 00:39:06;;;;;;;6.40;3.05;;;;;;;28.21;40.88;101177.81;5049479;28;20427;-66
2022/07/19 00:41:51;;;;;;;8.95;2.75;;;;;;;28.17;41.20;101194.69;5078706;28;20043;-65
2022/07/19 00:44:36;;;;;;;12.40;3.85;;;;;;;28.05;41.58;101187.63;5073646;28;20055;-64
2022/07/19 00:47:21;;;;;;;9.70;3.00;;;;;;;28.06;41.42;101194.81;5073823;28;20054;-67
2022/07/19 00:50:07;;;;;;;8.15;2.67;;;;;;;28.16;41.39;101186.69;5073893;28;20048;-66
2022/07/19 00:52:55;;;;;;;6.75;3.20;;;;;;;28.10;41.39;101191.94;5068337;28;20067;-65
2022/07/19 00:55:41;;;;;;;6.68;2.97;;;;;;;28.16;41.39;101190.28;5066969;28;20506;-64
2022/07/19 00:58:26;;;;;;;8.23;2.92;;;;;;;28.15;41.23;101185.91;5073488;28;20039;-64
2022/07/19 01:01:11;;;;;;;9.65;3.13;;;;;;;28.07;41.65;101190.00;5059529;28;20044;-67
2022/07/19 01:03:57;;;;;;;12.48;2.75;;;;;;;27.98;41.32;101193.34;5073830;28;20047;-65
2022/07/19 01:06:42;;;;;;;7.13;2.53;;;;;;;27.97;41.59;101191.75;5072768;28;20047;-65
2022/07/19 01:09:27;;;;;;;6.30;2.70;;;;;;;27.91;41.55;101196.25;5071868;28;20051;-65
2022/07/19 01:12:12;;;;;;;6.40;2.45;;;;;;;27.89;41.76;101183.88;5071141;28;20047;-64
2022/07/19 01:14:58;;;;;;;6.68;2.50;;;;;;;27.80;41.66;101192.00;5073572;28;20048;-64
2022/07/19 01:17:43;;;;;;;12.48;2.90;;;;;;;27.81;41.72;101190.81;5067081;28;20059;-65
2022/07/19 01:20:28;;;;;;;8.07;3.05;;;;;;;27.78;41.33;101186.88;5073340;28;20040;-65
2022/07/19 01:23:13;;;;;;;7.15;2.08;;;;;;;27.74;41.52;101199.28;5057305;28;20043;-64
2022/07/19 01:25:58;;;;;;;5.10;2.83;;;;;;;27.68;41.85;101192.59;5072992;28;20043;-64
2022/07/19 01:28:44;;;;;;;6.63;2.80;;;;;;;27.61;42.18;101190.69;5059971;28;20044;-64
2022/07/19 01:31:29;;;;;;;10.18;4.45;;;;;;;27.47;42.18;101191.66;5071962;28;20047;-64
2022/07/19 01:34:14;;;;;;;6.30;2.60;;;;;;;27.53;42.23;101198.38;5073120;28;20048;-64
2022/07/19 01:37:00;;;;;;;11.40;3.22;;;;;;;27.53;42.36;101189.22;5069757;28;20115;-64
2022/07/19 01:39:44;;;;;;;7.75;3.15;;;;;;;27.44;41.95;101189.69;5072730;28;20403;-66
2022/07/19 01:42:30;;;;;;;6.93;2.85;;;;;;;27.53;42.31;101194.81;5072074;28;20047;-66
2022/07/19 01:45:15;;;;;;;11.10;3.08;;;;;;;27.60;41.81;101191.91;5072428;28;20411;-64
2022/07/19 01:48:00;;;;;;;6.68;2.70;;;;;;;27.49;42.11;101194.00;5067374;28;20423;-64
2022/07/19 01:50:45;;;;;;;10.32;3.13;;;;;;;27.56;41.73;101191.94;5072820;28;20059;-64
2022/07/19 01:53:30;;;;;;;8.40;3.03;;;;;;;27.49;42.23;101189.25;5064319;28;20044;-64
2022/07/19 01:56:15;;;;;;;6.00;2.85;;;;;;;27.51;42.25;101191.63;5072406;28;20043;-64
2022/07/19 01:59:00;;;;;;;4.97;2.45;;;;;;;27.61;41.94;101190.69;5068597;28;20047;-65
2022/07/19 02:01:45;;;;;;;11.98;2.95;;;;;;;27.62;41.96;101187.50;5072475;28;20048;-65
2022/07/19 02:04:30;;;;;;;8.05;2.85;;;;;;;27.61;41.87;101190.69;5072709;28;20048;-64
2022/07/19 02:07:15;;;;;;;7.20;3.63;;;;;;;27.61;42.17;101185.91;5070644;28;20044;-66
2022/07/19 02:10:00;;;;;;;9.55;3.08;;;;;;;27.62;41.76;101192.28;5068809;28;20039;-65
2022/07/19 02:12:46;;;;;;;5.25;2.55;;;;;;;27.61;41.82;101194.28;5071531;28;20521;-64
2022/07/19 02:15:31;;;;;;;10.35;2.95;;;;;;;27.48;42.39;101182.03;5062892;28;20427;-64
2022/07/19 02:18:16;;;;;;;5.53;2.75;;;;;;;27.37;42.62;101178.63;5069781;28;20039;-64
2022/07/19 02:21:00;;;;;;;6.15;2.85;;;;;;;27.28;42.96;101183.13;5072226;28;20047;-64
2022/07/19 02:23:46;;;;;;;14.30;2.50;;;;;;;27.26;42.87;101182.75;5071362;28;20048;-65
2022/07/19 02:26:31;;;;;;;4.45;3.03;;;;;;;27.19;43.41;101187.19;5053092;28;20517;-66
2022/07/19 02:29:15;;;;;;;5.18;2.60;;;;;;;27.17;43.40;101175.66;5068065;28;20043;-65
2022/07/19 02:32:00;;;;;;;7.82;3.03;;;;;;;27.08;43.18;101180.16;5071908;28;20056;-66
2022/07/19 02:34:45;;;;;;;7.30;2.88;;;;;;;26.95;43.40;101187.50;5071565;28;20043;-65
2022/07/19 02:37:30;;;;;;;8.15;2.88;;;;;;;26.96;43.53;101189.88;5051196;28;20415;-63
2022/07/19 02:40:15;;;;;;;8.98;3.22;;;;;;;27.01;43.46;101186.63;5055837;28;20048;-64
2022/07/19 02:43:00;;;;;;;6.60;2.92;;;;;;;27.03;43.52;101189.00;5071680;28;20052;-67
2022/07/19 02:45:45;;;;;;;8.57;2.70;;;;;;;27.16;42.64;101193.63;5065435;28;20514;-65
2022/07/19 02:48:30;;;;;;;4.57;2.67;;;;;;;27.22;42.64;101185.59;5056642;28;20067;-65
2022/07/19 02:51:15;;;;;;;7.40;3.00;;;;;;;27.29;42.95;101190.28;5059256;28;20510;-66
2022/07/19 02:54:00;;;;;;;5.50;3.05;;;;;;;27.31;43.01;101199.84;5067695;28;20043;-63
2022/07/19 02:56:45;;;;;;;35.38;6.43;;;;;;;27.23;43.52;101193.53;5071608;28;20043;-64
2022/07/19 02:59:30;;;;;;;7.72;3.28;;;;;;;27.26;43.60;101196.72;5069627;28;20423;-64
2022/07/19 03:02:15;;;;;;;9.05;2.97;;;;;;;27.22;43.74;101203.16;5071297;28;20043;-64
2022/07/19 03:05:01;;;;;;;7.70;3.40;;;;;;;27.22;43.50;101196.75;5070752;28;20403;-64
2022/07/19 03:07:46;;;;;;;15.82;3.53;;;;;;;27.11;44.04;101205.25;5071506;28;20043;-64
2022/07/19 03:10:30;;;;;;;6.72;3.35;;;;;;;27.01;43.90;101211.75;5059601;28;20051;-63
2022/07/19 03:13:16;;;;;;;5.30;3.40;;;;;;;26.96;44.09;101206.63;5070963;28;20039;-64
2022/07/19 03:16:00;;;;;;;10.48;3.22;;;;;;;26.90;44.45;101213.88;5071025;28;20043;-64
2022/07/19 03:18:45;;;;;;;9.20;3.10;;;;;;;26.86;43.78;101209.50;5062705;28;20054;-66
2022/07/19 03:21:30;;;;;;;13.98;3.28;;;;;;;26.84;44.21;101209.91;5062420;28;20067;-65
2022/07/19 03:24:15;;;;;;;5.95;3.28;;;;;;;26.68;44.33;101202.09;5077705;28;20043;-64
2022/07/19 03:27:00;;;;;;;6.03;3.63;;;;;;;26.73;44.46;101203.63;5070901;28;20051;-64
2022/07/19 03:29:45;;;;;;;8.70;3.03;;;;;;;26.72;44.28;101204.84;5070884;28;20048;-65
2022/07/19 03:32:30;;;;;;;8.15;3.03;;;;;;;26.71;44.46;101206.06;5070846;28;20048;-63
2022/07/19 03:35:16;;;;;;;11.98;3.17;;;;;;;26.69;44.27;101208.47;5073802;28;20044;-66
2022/07/19 03:38:01;;;;;;;25.38;4.70;;;;;;;26.65;44.60;101210.50;5071129;28;20404;-66
2022/07/19 03:40:47;;;;;;;13.95;3.70;;;;;;;26.60;44.86;101211.75;5064064;28;20048;-65
2022/07/19 03:43:32;;;;;;;11.48;3.10;;;;;;;26.59;44.81;101215.72;5052038;28;20051;-65
2022/07/19 03:46:19;;;;;;;10.13;3.30;;;;;;;26.56;44.89;101215.78;5070435;28;20502;-64
2022/07/19 03:49:03;;;;;;;7.47;3.35;;;;;;;26.66;45.02;101220.47;5070178;28;20043;-65
2022/07/19 03:51:48;;;;;;;11.57;2.75;;;;;;;26.57;44.71;101217.34;5065529;28;20048;-63
2022/07/19 03:54:33;;;;;;;10.07;3.00;;;;;;;26.55;44.69;101220.56;5070803;28;20498;-64
2022/07/19 03:57:18;;;;;;;11.63;3.30;;;;;;;26.60;44.73;101222.09;5069057;28;20063;-64
2022/07/19 04:00:04;;;;;;;10.38;3.28;;;;;;;26.47;44.92;101234.97;5070100;28;20043;-64
2022/07/19 04:02:56;;;;;;;16.15;3.53;;;;;;;26.47;45.02;101234.97;5066423;28;20047;-64
2022/07/19 04:05:41;;;;;;;8.05;3.42;;;;;;;26.55;44.62;101236.50;5067584;28;20043;-64
2022/07/19 04:08:26;;;;;;;6.78;3.50;;;;;;;26.71;45.01;101239.56;5070632;28;20040;-64
2022/07/19 04:11:11;;;;;;;9.63;4.05;;;;;;;26.75;45.18;101249.47;5069865;28;20055;-64
2022/07/19 04:13:56;;;;;;;6.40;3.00;;;;;;;26.81;44.94;101252.63;5065943;28;20071;-64
2022/07/19 04:16:41;;;;;;;7.28;3.42;;;;;;;26.78;45.00;101250.63;5063555;28;20115;-64
2022/07/19 04:19:26;;;;;;;8.43;3.47;;;;;;;26.72;44.95;101246.69;5070018;28;20040;-66
2022/07/19 04:22:11;;;;;;;6.70;2.95;;;;;;;26.80;44.86;101249.03;5065977;28;20043;-65
2022/07/19 04:24:56;;;;;;;7.75;3.17;;;;;;;26.80;44.53;101249.03;5070206;28;20048;-64
2022/07/19 04:27:41;;;;;;;5.40;3.08;;;;;;;26.68;44.34;101252.31;5063088;28;20115;-65
2022/07/19 04:30:25;;;;;;;10.18;3.33;;;;;;;26.76;44.12;101247.47;5069552;28;20040;-65
2022/07/19 04:33:14;;;;;;;8.70;3.88;;;;;;;26.68;44.34;101238.38;5069310;28;20056;-65
2022/07/19 04:35:59;;;;;;;6.03;3.15;;;;;;;26.66;44.56;101251.16;5067537;28;20051;-64
2022/07/19 04:38:44;;;;;;;13.27;4.40;;;;;;;26.73;44.50;101251.06;5068994;28;20090;-66
2022/07/19 04:41:29;;;;;;;11.05;3.47;;;;;;;26.65;44.76;101253.16;5093304;23;20047;-77
2022/07/19 04:44:14;;;;;;;12.23;4.13;;;;;;;26.65;45.24;101252.34;5095339;28;20039;-78
2022/07/19 04:46:58;;;;;;;25.55;3.92;;;;;;;26.58;45.58;101261.56;5090214;28;20054;-78
2022/07/19 04:49:43;;;;;;;12.30;3.83;;;;;;;26.71;45.43;101259.88;5088951;28;20516;-76
2022/07/19 04:52:28;;;;;;;11.80;3.25;;;;;;;26.94;45.10;101256.50;5068017;28;20504;-75
2022/07/19 04:55:14;;;;;;;22.45;4.10;;;;;;;27.32;44.80;101256.50;5114778;22;20046;-66
2022/07/19 04:57:59;;;;;;;13.63;4.70;;;;;;;27.34;44.91;101263.22;5110312;28;20050;-66
2022/07/19 05:00:44;;;;;;;12.10;3.35;;;;;;;27.27;44.70;101262.53;5105713;28;20395;-68
2022/07/19 05:03:29;;;;;;;10.00;3.22;;;;;;;27.24;44.93;101261.34;5090773;28;20047;-68
2022/07/19 05:06:14;;;;;;;6.00;3.00;;;;;;;27.26;44.87;101263.75;5090756;28;20141;-66
2022/07/19 05:08:59;;;;;;;7.82;2.80;;;;;;;27.23;45.17;101266.16;5079044;28;20044;-66
2022/07/19 05:11:45;;;;;;;13.77;3.10;;;;;;;27.28;44.94;101269.72;5074302;28;20047;-68
2022/07/19 05:14:30;;;;;;;9.95;3.10;;;;;;;27.29;45.00;101271.28;5093190;28;20043;-68
2022/07/19 05:17:15;;;;;;;5.57;2.78;;;;;;;27.33;45.47;101272.81;5092508;28;20521;-68
2022/07/19 05:20:00;;;;;;;12.05;2.67;;;;;;;27.36;45.44;101274.00;5094225;28;20423;-68
2022/07/19 05:22:45;;;;;;;7.13;2.72;;;;;;;27.39;45.07;101271.16;5094316;28;20510;-68
2022/07/19 05:25:30;;;;;;;16.83;3.60;;;;;;;27.42;45.30;101272.34;5094165;28;20514;-68
2022/07/19 05:28:15;;;;;;;10.25;2.42;;;;;;;27.45;45.15;101268.69;5093035;28;20422;-67
2022/07/19 05:31:00;;;;;;;7.15;3.08;;;;;;;27.48;44.85;101271.44;5073581;28;20055;-68
2022/07/19 05:33:45;;;;;;;6.90;2.33;;;;;;;27.52;45.14;101271.44;5090877;28;20398;-68
2022/07/19 05:36:30;;;;;;;7.97;3.90;;;;;;;27.54;44.73;101271.81;5114373;28;20062;-68
2022/07/19 05:39:15;;;;;;;12.00;2.97;;;;;;;27.57;44.72;101271.78;5103365;28;20059;-68
2022/07/19 05:42:00;;;;;;;7.30;3.10;;;;;;;27.59;44.91;101274.13;5085515;28;20510;-68
2022/07/19 05:44:45;;;;;;;7.22;2.97;;;;;;;27.65;44.54;101272.47;5087751;28;20542;-68
2022/07/19 05:47:30;;;;;;;16.52;3.95;;;;;;;27.70;44.90;101277.59;5096231;28;20051;-68
2022/07/19 05:50:15;;;;;;;12.77;3.42;;;;;;;27.73;44.35;101276.00;5093590;28;20043;-69
2022/07/19 05:53:00;;;;;;;12.63;3.47;;;;;;;27.76;44.18;101275.13;5093208;28;20414;-69
2022/07/19 05:55:45;;;;;;;7.47;2.97;;;;;;;27.79;44.67;101274.28;5083231;28;20051;-68
2022/07/19 05:58:30;;;;;;;10.57;2.60;;;;;;;27.81;44.03;101269.06;5103420;28;20042;-68
2022/07/19 06:01:19;;;;;;;8.07;2.20;;;;;;;27.83;44.12;101270.25;5097744;28;20043;-68
2022/07/19 06:04:03;;;;;;;4.68;2.40;;;;;;;27.87;43.70;101273.78;5116821;28;20059;-69
2022/07/19 06:06:48;;;;;;;4.43;2.40;;;;;;;27.92;43.89;101266.94;5109594;28;20063;-68
2022/07/19 06:09:33;;;;;;;5.72;2.25;;;;;;;27.96;43.67;101267.66;5093298;28;20058;-69
2022/07/19 06:12:18;;;;;;;9.65;3.45;;;;;;;28.00;43.58;101274.00;5093033;28;20051;-68
2022/07/19 06:15:04;;;;;;;14.60;3.10;;;;;;;28.03;42.81;101267.59;5093104;28;20058;-68
2022/07/19 06:17:49;;;;;;;8.32;3.05;;;;;;;28.06;42.79;101264.72;5101753;28;20047;-68
2022/07/19 06:20:34;;;;;;;4.93;2.28;;;;;;;28.09;42.84;101263.06;5085479;28;20410;-68
2022/07/19 06:23:19;;;;;;;6.18;2.47;;;;;;;28.15;42.51;101269.81;5089252;28;20403;-68
2022/07/19 06:26:05;;;;;;;4.20;2.22;;;;;;;28.20;42.68;101266.53;5089775;28;20051;-68
2022/07/19 06:28:49;;;;;;;5.55;2.90;;;;;;;28.24;43.21;101272.88;5112452;28;20047;-68
2022/07/19 06:31:34;;;;;;;6.50;2.50;;;;;;;28.27;42.68;101254.47;5119090;28;20054;-69
2022/07/19 06:34:19;;;;;;;7.03;2.22;;;;;;;28.33;42.39;101269.56;5113025;28;20414;-69
2022/07/19 06:37:04;;;;;;;7.03;3.08;;;;;;;28.35;41.78;101261.50;5108815;28;20062;-69
2022/07/19 06:39:49;;;;;;;4.53;2.38;;;;;;;28.40;41.56;101263.84;5095526;28;20040;-69
2022/07/19 06:42:35;;;;;;;5.35;2.55;;;;;;;28.44;40.90;101264.59;5073699;28;20071;-69
2022/07/19 06:45:20;;;;;;;7.60;2.83;;;;;;;28.47;40.04;101258.13;5072381;28;20047;-69
2022/07/19 06:48:05;;;;;;;8.00;3.03;;;;;;;28.54;39.88;101260.03;5072095;28;20051;-67
2022/07/19 06:50:50;;;;;;;11.30;2.67;;;;;;;28.59;39.96;101260.34;5087035;28;20035;-69
2022/07/19 06:53:35;;;;;;;9.85;3.10;;;;;;;28.64;39.55;101257.06;5082581;28;20221;-69
2022/07/19 06:56:20;;;;;;;6.30;2.67;;;;;;;28.68;39.52;101254.19;5076643;28;20043;-69
2022/07/19 06:59:05;;;;;;;10.90;3.88;;;;;;;28.72;39.40;101257.75;5081014;28;20051;-69
2022/07/19 07:01:50;;;;;;;9.25;2.80;;;;;;;28.76;39.09;101258.47;5092077;28;20039;-70
2022/07/19 07:04:35;;;;;;;13.48;2.70;;;;;;;28.80;38.73;101248.00;5086818;28;20059;-69
2022/07/19 07:07:20;;;;;;;10.30;2.88;;;;;;;28.84;39.02;101243.94;5091986;28;20062;-68
2022/07/19 07:10:06;;;;;;;6.72;2.33;;;;;;;28.89;38.56;101246.25;5089039;28;20509;-70
2022/07/19 07:12:50;;;;;;;5.03;1.75;;;;;;;28.93;37.78;101248.97;5098638;28;20051;-69
2022/07/19 07:15:38;;;;;;;4.50;1.75;;;;;;;28.97;37.72;101244.09;5081673;28;20043;-69
2022/07/19 07:18:22;;;;;;;7.63;1.70;;;;;;;29.01;37.04;101246.81;5091034;28;20518;-70
2022/07/19 07:21:07;;;;;;;3.72;2.00;;;;;;;29.07;37.43;101239.50;5095790;28;20038;-70
2022/07/19 07:23:52;;;;;;;6.15;2.45;;;;;;;29.12;36.52;101239.00;5078359;28;20407;-69
2022/07/19 07:26:37;;;;;;;11.45;1.80;;;;;;;29.17;36.17;101244.91;5084364;28;20059;-70
2022/07/19 07:29:22;;;;;;;9.00;1.88;;;;;;;29.21;35.42;101239.22;5102995;28;20054;-68
2022/07/19 07:32:07;;;;;;;4.88;1.40;;;;;;;29.25;35.02;101240.75;5094583;28;20055;-69
2022/07/19 07:34:53;;;;;;;3.65;1.83;;;;;;;29.32;34.71;101242.63;5091776;28;20323;-68
2022/07/19 07:37:38;;;;;;;2.17;1.40;;;;;;;29.37;34.73;101246.94;5071479;28;20052;-68
2022/07/19 07:40:23;;;;;;;4.40;1.42;;;;;;;29.38;34.70;101238.09;5071432;28;20051;-68
2022/07/19 07:43:08;;;;;;;4.53;1.38;;;;;;;29.44;34.45;101242.00;5070996;28;20075;-68
2022/07/19 07:45:53;;;;;;;4.10;1.55;;;;;;;29.49;34.32;101247.09;5077357;28;20047;-67
2022/07/19 07:48:38;;;;;;;3.65;1.20;;;;;;;29.52;33.84;101246.22;5084325;28;20047;-68
2022/07/19 07:51:24;;;;;;;2.95;1.33;;;;;;;29.56;33.86;101246.91;5090101;28;20074;-68
2022/07/19 07:54:08;;;;;;;2.95;1.25;;;;;;;29.59;33.58;101243.28;5081621;28;20047;-68
2022/07/19 07:56:53;;;;;;;3.13;1.35;;;;;;;29.64;33.10;101242.75;5090987;28;20043;-68
2022/07/19 07:59:38;;;;;;;6.38;1.30;;;;;;;29.67;33.16;101244.69;5091300;28;20047;-69
2022/07/19 08:02:23;;;;;;;4.00;1.50;;;;;;;29.71;32.48;101245.38;5086248;28;20051;-69
2022/07/19 08:05:09;;;;;;;4.93;1.30;;;;;;;29.77;32.26;101243.66;5080655;28;20048;-71
2022/07/19 08:07:54;;;;;;;3.08;1.23;;;;;;;29.82;32.49;101236.00;5091320;28;20051;-68
2022/07/19 08:10:39;;;;;;;4.82;1.20;;;;;;;29.89;31.84;101235.81;5091060;28;20411;-71
2022/07/19 08:13:24;;;;;;;4.25;0.88;;;;;;;29.93;31.61;101244.94;5084090;28;20051;-68
2022/07/19 08:16:09;;;;;;;4.07;1.35;;;;;;;29.99;32.22;101237.59;5088537;28;20418;-69
2022/07/19 08:18:54;;;;;;;4.90;1.45;;;;;;;30.03;31.88;101241.91;5091179;28;20051;-67
2022/07/19 08:21:39;;;;;;;1.73;1.42;;;;;;;30.10;32.20;101240.97;5090772;28;20047;-68
2022/07/19 08:24:23;;;;;;;2.97;1.15;;;;;;;30.14;31.67;101244.47;5080691;28;20066;-70
2022/07/19 08:27:08;;;;;;;6.30;1.45;;;;;;;30.17;31.85;101235.94;5072218;28;20067;-70
2022/07/19 08:29:53;;;;;;;7.22;1.90;;;;;;;30.22;31.25;101233.88;5084844;28;20036;-69
2022/07/19 08:32:39;;;;;;;4.25;1.42;;;;;;;30.28;30.88;101238.50;5088954;28;20054;-70
2022/07/19 08:35:24;;;;;;;4.75;2.22;;;;;;;30.33;30.24;101237.97;5092177;28;20067;-69
2022/07/19 08:38:09;;;;;;;13.00;1.67;;;;;;;30.38;30.29;101234.66;5086605;28;20063;-69
2022/07/19 08:40:55;;;;;;;7.50;1.50;;;;;;;30.45;30.15;101236.50;5091558;28;20043;-69
2022/07/19 08:43:40;;;;;;;10.52;1.40;;;;;;;30.48;30.09;101239.25;5090548;28;20067;-70
2022/07/19 08:46:25;;;;;;;3.92;1.38;;;;;;;30.57;29.67;101238.63;5074254;28;20043;-71
2022/07/19 08:49:10;;;;;;;11.57;1.45;;;;;;;30.64;29.67;101227.22;5082921;28;20043;-69
2022/07/19 08:51:56;;;;;;;4.97;1.40;;;;;;;30.68;29.44;101232.75;5090406;28;20063;-69
2022/07/19 08:54:41;;;;;;;3.08;1.20;;;;;;;30.71;29.92;101231.84;5094540;28;20055;-69
2022/07/19 09:00:31;;;;;;;19.23;2.03;;;;;;;30.83;28.71;101231.16;5082337;28;20514;-70
2022/07/19 09:03:16;;;;;;;7.68;1.35;;;;;;;30.91;29.56;101233.31;5085860;28;20395;-70
2022/07/19 09:06:04;;;;;;;2.30;1.17;;;;;;;30.98;29.86;101229.53;5085564;28;20044;-70
2022/07/19 09:08:51;;;;;;;2.95;1.30;;;;;;;30.99;29.40;101226.25;5083292;28;20050;-69
2022/07/19 09:11:48;;;;;;;3.17;1.08;;;;;;;31.09;29.00;101230.03;5084913;28;20031;-69
2022/07/19 09:14:36;;;;;;;8.48;1.30;;;;;;;31.12;28.94;101234.78;5090145;28;20075;-69
2022/07/19 09:17:21;;;;;;;3.65;1.30;;;;;;;31.16;28.56;101229.84;5083573;28;20235;-70
2022/07/19 09:20:06;;;;;;;2.38;0.93;;;;;;;31.24;28.78;101234.00;5090265;28;20050;-70
2022/07/19 09:22:54;;;;;;;2.55;1.10;;;;;;;31.32;29.40;101229.00;5089340;28;20055;-69
2022/07/19 09:25:42;;;;;;;4.65;1.42;;;;;;;31.32;29.37;101229.78;5085199;28;20036;-70
2022/07/19 09:28:31;;;;;;;11.82;2.20;;;;;;;31.38;29.58;101224.41;5087029;28;20047;-70
2022/07/19 09:31:16;;;;;;;8.80;1.30;;;;;;;31.41;29.80;101229.91;5082932;28;20502;-70
2022/07/19 09:34:01;;;;;;;6.05;1.60;;;;;;;31.44;29.84;101226.19;5081500;28;20066;-68
2022/07/19 09:36:46;;;;;;;5.75;2.42;;;;;;;31.49;30.16;101232.53;5079087;28;20403;-69
2022/07/19 09:39:31;;;;;;;6.13;1.30;;;;;;;31.54;30.15;101226.34;5099907;28;20039;-69
2022/07/19 09:42:34;;;;;;;12.38;1.85;;;;;;;31.60;30.13;101227.38;5089749;28;20055;-69
2022/07/19 09:45:20;;;;;;;8.52;2.00;;;;;;;31.63;30.08;101223.69;5091206;28;20063;-69
2022/07/19 09:48:05;;;;;;;6.20;1.60;;;;;;;31.69;29.98;101224.72;5075090;28;20059;-69
2022/07/19 09:50:50;;;;;;;11.68;1.70;;;;;;;31.75;30.09;101214.47;5074079;28;20035;-68
2022/07/19 09:53:35;;;;;;;3.92;1.90;;;;;;;31.79;29.86;101223.59;5085661;28;20042;-69
2022/07/19 09:56:20;;;;;;;4.50;1.95;;;;;;;31.83;29.61;101221.47;5093079;28;20427;-69
2022/07/19 09:59:06;;;;;;;10.27;1.52;;;;;;;31.89;29.51;101222.47;5092071;28;20047;-69
2022/07/19 10:01:56;;;;;;;2.38;1.30;;;;;;;31.97;29.32;101220.22;5095456;28;20161;-68
2022/07/19 10:04:42;;;;;;;4.20;1.40;;;;;;;31.98;29.16;101214.16;5089117;28;20043;-69
2022/07/19 10:07:27;;;;;;;7.63;1.20;;;;;;;32.04;29.19;101217.97;5092902;28;20051;-70
2022/07/19 10:10:16;;;;;;;2.28;1.30;;;;;;;32.07;28.85;101205.81;5081395;28;20047;-70
2022/07/19 10:13:03;;;;;;;4.60;1.50;;;;;;;32.13;29.30;101206.06;5088935;28;20062;-70
2022/07/19 10:15:52;;;;;;;6.60;1.02;;;;;;;32.18;28.80;101205.50;5069817;28;20505;-69
2022/07/19 10:18:51;;;;;;;8.93;1.60;;;;;;;32.24;29.02;101207.28;5081822;28;20051;-69
2022/07/19 10:21:36;;;;;;;3.60;1.00;;;;;;;32.28;28.91;101209.97;5071748;28;20110;-69
2022/07/19 10:24:50;;;;;;;9.50;1.63;;;;;;;32.35;28.64;101211.78;5090089;28;20051;-69
2022/07/19 10:27:39;;;;;;;13.65;1.48;;;;;;;32.38;28.77;101210.84;5093050;28;20055;-69
2022/07/19 10:30:25;;;;;;;3.60;1.02;;;;;;;32.43;28.79;101207.47;5078579;28;20043;-68
2022/07/19 10:33:32;;;;;;;2.10;1.00;;;;;;;32.51;28.53;101203.19;5085612;28;20111;-69
2022/07/19 10:36:37;;;;;;;4.00;1.30;;;;;;;32.57;28.75;101210.59;5078600;28;20051;-70
2022/07/19 10:39:33;;;;;;;7.47;1.50;;;;;;;32.62;28.25;101206.41;5085445;28;20047;-70
2022/07/19 10:42:22;;;;;;;7.78;1.30;;;;;;;32.65;27.89;101209.13;5073605;28;20043;-70
2022/07/19 10:45:12;;;;;;;3.92;1.00;;;;;;;32.69;27.51;101194.91;5097743;28;20042;-70
2022/07/19 10:47:59;;;;;;;12.55;2.88;;;;;;;32.73;27.75;101198.41;5093654;28;20063;-70
2022/07/19 10:50:54;;;;;;;7.63;1.00;;;;;;;32.79;27.60;101196.56;5079063;28;20039;-70
2022/07/19 10:53:42;;;;;;;6.07;1.65;;;;;;;32.83;27.53;101194.41;5072251;28;20051;-70
2022/07/19 10:56:30;;;;;;;11.45;2.08;;;;;;;32.84;27.30;101187.53;5079818;28;20403;-70
2022/07/19 10:59:28;;;;;;;2.42;1.05;;;;;;;32.89;26.95;101184.13;5079756;28;20503;-70
2022/07/19 11:02:23;;;;;;;1.80;1.27;;;;;;;32.94;26.98;101189.19;5081152;28;20522;-70
2022/07/19 11:05:25;;;;;;;6.72;1.33;;;;;;;33.00;26.58;101193.00;5083636;28;20509;-70
2022/07/19 11:08:10;;;;;;;4.22;1.25;;;;;;;33.02;26.79;101186.88;5091842;28;20043;-70
2022/07/19 11:11:12;;;;;;;5.43;0.98;;;;;;;33.10;26.63;101186.16;5084661;28;20044;-70
2022/07/19 11:13:58;;;;;;;4.63;0.93;;;;;;;33.12;26.18;101179.28;5079865;28;20043;-70
2022/07/19 11:16:43;;;;;;;28.77;2.65;;;;;;;33.15;26.62;101169.91;5085406;28;20403;-69
2022/07/19 11:19:28;;;;;;;7.28;1.48;;;;;;;33.19;26.46;101167.75;5084633;28;20047;-70
2022/07/19 11:22:13;;;;;;;9.32;1.08;;;;;;;33.22;26.35;101166.84;5087320;28;20043;-70
2022/07/19 11:24:58;;;;;;;31.63;3.47;;;;;;;33.26;26.65;101165.47;5087312;28;20047;-69
2022/07/19 11:27:46;;;;;;;7.82;1.30;;;;;;;33.32;25.84;101168.50;5091821;28;20423;-70
2022/07/19 11:30:34;;;;;;;4.53;1.00;;;;;;;33.37;25.83;101170.72;5091516;28;20048;-70
2022/07/19 11:33:20;;;;;;;1.75;1.13;;;;;;;33.40;25.69;101161.31;5079440;28;20051;-69
2022/07/19 11:36:05;;;;;;;13.07;2.03;;;;;;;33.45;26.02;101158.69;5091141;28;20522;-69
2022/07/19 11:38:53;;;;;;;1.90;0.93;;;;;;;33.52;26.30;101166.09;5103814;22;20417;-67
2022/07/19 11:41:38;;;;;;;7.13;1.10;;;;;;;33.52;26.74;101164.03;5080885;28;20406;-67
2022/07/19 11:44:23;;;;;;;4.60;1.17;;;;;;;33.57;26.22;101159.84;5090719;28;20063;-67
2022/07/19 11:47:08;;;;;;;6.38;1.88;;;;;;;33.60;26.17;101146.81;5084152;28;20042;-65
2022/07/19 11:49:53;;;;;;;6.15;1.40;;;;;;;33.62;26.11;101144.34;5084213;28;20067;-65
2022/07/19 11:52:47;;;;;;;7.82;1.40;;;;;;;33.67;26.55;101147.34;5062496;28;20043;-67
2022/07/19 11:55:39;;;;;;;;;;;;;;;33.72;25.97;101143.94;5085471;28;20047;-65
2022/07/19 11:58:24;;;;;;;4.57;1.15;;;;;;;33.68;26.63;101146.09;5081921;28;19923;-67
2022/07/19 12:01:09;;;;;;;4.03;1.27;;;;;;;33.70;26.46;101140.78;5080727;28;20390;-67
2022/07/19 12:03:57;;;;;;;3.33;1.17;;;;;;;33.79;26.28;101140.03;5059414;28;20040;-66
2022/07/19 12:06:42;;;;;;;3.20;1.02;;;;;;;33.80;26.34;101133.94;5070468;28;20043;-65
2022/07/19 12:09:28;;;;;;;3.42;1.50;;;;;;;33.87;26.32;101128.00;5070179;28;20050;-64
2022/07/19 12:12:16;;;;;;;6.88;2.33;;;;;;;33.90;26.02;101129.88;5070202;28;20040;-65
2022/07/19 12:15:08;;;;;;;3.83;1.10;;;;;;;33.94;26.45;101130.50;5084361;28;20044;-65
2022/07/19 12:17:57;;;;;;;7.00;1.00;;;;;;;33.98;26.04;101126.78;5070351;28;20047;-66
2022/07/19 12:20:43;;;;;;;2.85;1.23;;;;;;;33.98;26.21;101124.75;5081781;28;20125;-65
2022/07/19 12:23:28;;;;;;;5.05;1.00;;;;;;;33.99;26.26;101120.63;5068692;28;20521;-67
2022/07/19 12:26:13;;;;;;;3.95;1.20;;;;;;;34.02;26.37;101118.94;5083460;28;20514;-66
2022/07/19 12:28:58;;;;;;;3.97;1.30;;;;;;;34.03;26.28;101123.34;5091561;28;20068;-68
2022/07/19 12:31:44;;;;;;;8.40;1.38;;;;;;;34.06;26.14;101116.75;5075142;28;20043;-66
2022/07/19 12:34:45;;;;;;;5.95;1.02;;;;;;;34.08;26.22;101117.84;5075479;28;20052;-65
2022/07/19 12:37:32;;;;;;;7.60;1.33;;;;;;;34.06;26.27;101117.53;5083680;28;20063;-67
2022/07/19 12:40:23;;;;;;;4.30;1.52;;;;;;;34.11;26.16;101116.91;5085375;28;20514;-66
2022/07/19 12:43:13;;;;;;;8.25;1.13;;;;;;;34.15;26.22;101113.94;5089587;28;20046;-65
2022/07/19 12:46:01;;;;;;;21.70;3.25;;;;;;;34.12;25.90;101115.66;5085205;28;20043;-64
2022/07/19 12:48:46;;;;;;;4.40;1.30;;;;;;;34.13;26.04;101105.16;5088986;28;20035;-66
2022/07/19 12:51:30;;;;;;;6.43;1.45;;;;;;;34.13;26.42;101105.16;5084170;28;20052;-66
2022/07/19 12:54:16;;;;;;;9.70;1.73;;;;;;;34.15;26.32;101097.78;5093093;28;20038;-65